createdAt,value
2017-02-11T00:00:21.598Z,0
2017-02-11T00:01:02.045Z,0
2017-02-11T00:01:42.436Z,0
2017-02-11T00:02:22.814Z,0
2017-02-11T00:03:03.220Z,0
2017-02-11T00:03:43.654Z,0
2017-02-11T00:04:24.024Z,0
2017-02-11T00:05:04.452Z,0
2017-02-11T00:05:44.857Z,0
2017-02-11T00:06:25.317Z,0
2017-02-11T00:07:05.696Z,0
2017-02-11T00:07:46.041Z,0
2017-02-11T00:08:26.454Z,0
2017-02-11T00:09:06.877Z,0
2017-02-11T00:09:47.287Z,0
2017-02-11T00:10:27.705Z,0
2017-02-11T00:11:08.118Z,0
2017-02-11T00:11:48.536Z,0
2017-02-11T00:12:28.918Z,0
2017-02-11T00:13:09.945Z,0
2017-02-11T00:13:50.350Z,0
2017-02-11T00:14:31.720Z,0
2017-02-11T00:15:12.140Z,0
2017-02-11T00:15:52.589Z,0
2017-02-11T00:16:32.982Z,0
2017-02-11T00:17:14.273Z,0
2017-02-11T00:17:54.725Z,0
2017-02-11T00:18:35.128Z,0
2017-02-11T00:19:15.518Z,0
2017-02-11T00:19:55.975Z,0
2017-02-11T00:20:36.377Z,0
2017-02-11T00:21:16.794Z,0
2017-02-11T00:21:57.247Z,0
2017-02-11T00:22:37.606Z,0
2017-02-11T00:23:18.108Z,0
2017-02-11T00:23:58.544Z,0
2017-02-11T00:24:38.925Z,0
2017-02-11T00:25:19.391Z,0
2017-02-11T00:25:59.783Z,0
2017-02-11T00:26:40.272Z,0
2017-02-11T00:27:21.285Z,0
2017-02-11T00:28:02.311Z,0
2017-02-11T00:28:42.720Z,0
2017-02-11T00:29:23.122Z,0
2017-02-11T00:30:03.557Z,0
2017-02-11T00:30:43.953Z,0
2017-02-11T00:31:24.356Z,0
2017-02-11T00:32:04.746Z,0
2017-02-11T00:32:45.126Z,0
2017-02-11T00:33:25.609Z,0
2017-02-11T00:34:06.011Z,0
2017-02-11T00:34:46.425Z,0
2017-02-11T00:35:26.857Z,0
2017-02-11T00:36:07.289Z,0
2017-02-11T00:36:47.706Z,0
2017-02-11T00:37:28.100Z,0
2017-02-11T00:38:08.473Z,0
2017-02-11T00:38:48.909Z,0
2017-02-11T00:39:29.313Z,0
2017-02-11T00:40:09.717Z,0
2017-02-11T00:40:50.187Z,0
2017-02-11T00:41:30.576Z,0
2017-02-11T00:42:10.951Z,0
2017-02-11T00:42:51.395Z,0
2017-02-11T00:43:31.816Z,0
2017-02-11T00:44:12.218Z,0
2017-02-11T00:44:52.685Z,0
2017-02-11T00:45:33.069Z,0
2017-02-11T00:46:13.504Z,0
2017-02-11T00:46:53.920Z,0
2017-02-11T00:47:34.323Z,0
2017-02-11T00:48:14.692Z,0
2017-02-11T00:48:55.087Z,0
2017-02-11T00:49:35.498Z,0
2017-02-11T00:50:15.895Z,0
2017-02-11T00:50:56.316Z,0
2017-02-11T00:51:36.710Z,0
2017-02-11T00:52:17.106Z,0
2017-02-11T00:52:57.511Z,0
2017-02-11T00:53:37.913Z,0
2017-02-11T00:54:18.311Z,0
2017-02-11T00:54:58.694Z,0
2017-02-11T00:55:39.121Z,0
2017-02-11T00:56:19.516Z,0
2017-02-11T00:56:59.884Z,0
2017-02-11T00:57:40.295Z,0
2017-02-11T00:58:20.714Z,0
2017-02-11T00:59:01.124Z,0
2017-02-11T00:59:41.527Z,0
2017-02-11T01:00:22.003Z,0
2017-02-11T01:01:02.373Z,0
2017-02-11T01:01:42.832Z,0
2017-02-11T01:02:23.207Z,0
2017-02-11T01:03:04.233Z,0
2017-02-11T01:03:44.665Z,0
2017-02-11T01:04:25.044Z,0
2017-02-11T01:05:05.448Z,0
2017-02-11T01:05:48.824Z,0
2017-02-11T01:06:29.184Z,0
2017-02-11T01:07:09.645Z,0
2017-02-11T01:07:50.057Z,0
2017-02-11T01:08:30.443Z,0
2017-02-11T01:09:12.461Z,0
2017-02-11T01:09:53.645Z,0
2017-02-11T01:10:34.083Z,0
2017-02-11T01:11:14.475Z,0
2017-02-11T01:11:54.852Z,0
2017-02-11T01:12:35.272Z,0
2017-02-11T01:13:15.690Z,0
2017-02-11T01:13:56.100Z,0
2017-02-11T01:14:36.559Z,0
2017-02-11T01:15:16.966Z,0
2017-02-11T01:15:57.374Z,0
2017-02-11T01:16:38.723Z,0
2017-02-11T01:17:19.141Z,0
2017-02-11T01:17:59.563Z,0
2017-02-11T01:18:40.685Z,0
2017-02-11T01:19:21.098Z,0
2017-02-11T01:20:01.508Z,0
2017-02-11T01:20:41.926Z,0
2017-02-11T01:21:22.332Z,0
2017-02-11T01:22:02.718Z,0
2017-02-11T01:22:43.146Z,0
2017-02-11T01:23:23.521Z,0
2017-02-11T01:24:03.922Z,0
2017-02-11T01:24:44.304Z,0
2017-02-11T01:25:24.712Z,0
2017-02-11T01:26:05.120Z,0
2017-02-11T01:26:45.557Z,0
2017-02-11T01:27:25.987Z,0
2017-02-11T01:28:06.391Z,0
2017-02-11T01:28:47.444Z,0
2017-02-11T01:29:27.900Z,0
2017-02-11T01:30:08.278Z,0
2017-02-11T01:30:48.696Z,0
2017-02-11T01:31:29.080Z,0
2017-02-11T01:32:09.467Z,0
2017-02-11T01:32:49.898Z,0
2017-02-11T01:33:30.288Z,0
2017-02-11T01:34:10.708Z,0
2017-02-11T01:34:51.129Z,0
2017-02-11T01:35:31.535Z,0
2017-02-11T01:36:12.626Z,0
2017-02-11T01:36:53.013Z,0
2017-02-11T01:37:33.443Z,0
2017-02-11T01:38:13.801Z,0
2017-02-11T01:38:54.221Z,0
2017-02-11T01:39:34.643Z,0
2017-02-11T01:40:15.056Z,0
2017-02-11T01:40:55.470Z,0
2017-02-11T01:41:35.852Z,0
2017-02-11T01:42:17.215Z,0
2017-02-11T01:42:57.651Z,0
2017-02-11T01:43:38.067Z,0
2017-02-11T01:44:19.127Z,0
2017-02-11T01:44:59.507Z,0
2017-02-11T01:45:39.928Z,0
2017-02-11T01:46:20.357Z,0
2017-02-11T01:47:00.719Z,0
2017-02-11T01:47:41.162Z,0
2017-02-11T01:48:21.547Z,0
2017-02-11T01:49:01.926Z,0
2017-02-11T01:49:43.303Z,0
2017-02-11T01:50:23.705Z,0
2017-02-11T01:51:04.109Z,0
2017-02-11T01:51:44.522Z,0
2017-02-11T01:52:24.967Z,0
2017-02-11T01:53:05.394Z,0
2017-02-11T01:53:45.822Z,0
2017-02-11T01:54:26.253Z,0
2017-02-11T01:55:06.647Z,0
2017-02-11T01:55:47.057Z,0
2017-02-11T01:56:27.481Z,0
2017-02-11T01:57:07.901Z,0
2017-02-11T01:57:48.274Z,0
2017-02-11T01:58:29.618Z,0
2017-02-11T01:59:10.030Z,0
2017-02-11T01:59:50.463Z,0
2017-02-11T02:00:30.847Z,0
2017-02-11T02:01:11.275Z,0
2017-02-11T02:01:53.306Z,0
2017-02-11T02:02:33.749Z,0
2017-02-11T02:03:14.192Z,0
2017-02-11T02:03:54.559Z,0
2017-02-11T02:04:34.979Z,0
2017-02-11T02:05:15.378Z,0
2017-02-11T02:05:55.814Z,0
2017-02-11T02:06:36.746Z,0
2017-02-11T02:07:17.176Z,0
2017-02-11T02:07:57.625Z,0
2017-02-11T02:08:38.721Z,0
2017-02-11T02:09:19.163Z,0
2017-02-11T02:09:59.499Z,0
2017-02-11T02:10:39.959Z,0
2017-02-11T02:11:20.317Z,0
2017-02-11T02:12:00.704Z,0
2017-02-11T02:12:41.078Z,0
2017-02-11T02:13:21.527Z,0
2017-02-11T02:14:01.955Z,0
2017-02-11T02:14:42.369Z,0
2017-02-11T02:15:22.812Z,0
2017-02-11T02:16:03.190Z,0
2017-02-11T02:16:43.659Z,0
2017-02-11T02:17:24.044Z,0
2017-02-11T02:18:04.448Z,0
2017-02-11T02:18:44.889Z,0
2017-02-11T02:19:25.295Z,0
2017-02-11T02:20:05.692Z,0
2017-02-11T02:20:46.117Z,0
2017-02-11T02:21:26.518Z,0
2017-02-11T02:22:06.904Z,0
2017-02-11T02:22:47.322Z,0
2017-02-11T02:23:28.622Z,0
2017-02-11T02:24:09.067Z,0
2017-02-11T02:24:49.433Z,0
2017-02-11T02:25:29.851Z,0
2017-02-11T02:26:10.325Z,0
2017-02-11T02:26:50.785Z,0
2017-02-11T02:27:31.222Z,0
2017-02-11T02:28:11.665Z,0
2017-02-11T02:28:52.089Z,0
2017-02-11T02:29:32.497Z,0
2017-02-11T02:30:12.888Z,0
2017-02-11T02:30:54.185Z,0
2017-02-11T02:31:34.628Z,0
2017-02-11T02:32:15.044Z,0
2017-02-11T02:32:56.134Z,0
2017-02-11T02:33:36.595Z,0
2017-02-11T02:34:17.035Z,0
2017-02-11T02:34:57.421Z,0
2017-02-11T02:35:37.827Z,0
2017-02-11T02:36:18.265Z,0
2017-02-11T02:36:58.638Z,0
2017-02-11T02:37:39.065Z,0
2017-02-11T02:38:19.435Z,0
2017-02-11T02:38:59.882Z,0
2017-02-11T02:39:40.231Z,0
2017-02-11T02:40:20.641Z,0
2017-02-11T02:41:01.071Z,0
2017-02-11T02:41:44.316Z,0
2017-02-11T02:42:24.707Z,0
2017-02-11T02:43:06.127Z,0
2017-02-11T02:43:46.549Z,0
2017-02-11T02:44:27.674Z,0
2017-02-11T02:45:09.093Z,0
2017-02-11T02:45:50.106Z,0
2017-02-11T02:46:30.549Z,0
2017-02-11T02:47:10.909Z,0
2017-02-11T02:47:51.354Z,0
2017-02-11T02:48:31.754Z,0
2017-02-11T02:49:12.114Z,0
2017-02-11T02:49:52.561Z,0
2017-02-11T02:50:33.619Z,0
2017-02-11T02:51:14.053Z,0
2017-02-11T02:51:55.329Z,0
2017-02-11T02:52:35.725Z,0
2017-02-11T02:53:16.168Z,0
2017-02-11T02:53:57.133Z,0
2017-02-11T02:54:38.228Z,0
2017-02-11T02:55:20.227Z,0
2017-02-11T02:56:01.470Z,0
2017-02-11T02:56:41.876Z,0
2017-02-11T02:57:22.324Z,0
2017-02-11T02:58:02.681Z,0
2017-02-11T02:58:44.083Z,0
2017-02-11T02:59:24.475Z,0
2017-02-11T03:00:04.845Z,0
2017-02-11T03:00:45.288Z,0
2017-02-11T03:01:25.700Z,0
2017-02-11T03:02:06.103Z,0
2017-02-11T03:02:46.531Z,0
2017-02-11T03:03:26.956Z,0
2017-02-11T03:04:07.614Z,0
2017-02-11T03:04:48.898Z,0
2017-02-11T03:05:30.798Z,0
2017-02-11T03:06:11.830Z,0
2017-02-11T03:06:52.982Z,0
2017-02-11T03:07:35.982Z,0
2017-02-11T03:08:17.156Z,0
2017-02-11T03:08:58.298Z,0
2017-02-11T03:09:38.733Z,0
2017-02-11T03:10:19.107Z,0
2017-02-11T03:10:59.526Z,0
2017-02-11T03:11:39.994Z,0
2017-02-11T03:12:21.298Z,0
2017-02-11T03:13:01.757Z,0
2017-02-11T06:12:52.364Z,0
2017-02-11T06:13:32.745Z,0
2017-02-11T06:14:14.135Z,0
2017-02-11T06:14:54.524Z,4
2017-02-11T06:15:34.954Z,4
2017-02-11T06:16:15.431Z,4
2017-02-11T06:16:55.831Z,0
2017-02-11T06:17:36.197Z,4
2017-02-11T06:18:16.664Z,4
2017-02-11T06:18:57.089Z,4
2017-02-11T06:19:37.515Z,8
2017-02-11T06:20:18.784Z,4
2017-02-11T06:20:59.241Z,8
2017-02-11T06:21:40.309Z,8
2017-02-11T06:22:20.687Z,8
2017-02-11T06:23:01.186Z,12
2017-02-11T06:23:41.594Z,12
2017-02-11T06:24:21.952Z,12
2017-02-11T06:25:02.366Z,12
2017-02-11T06:25:42.821Z,16
2017-02-11T06:26:23.198Z,20
2017-02-11T06:27:03.590Z,24
2017-02-11T06:27:43.989Z,24
2017-02-11T06:28:24.402Z,28
2017-02-11T06:29:07.089Z,24
2017-02-11T06:29:48.367Z,28
2017-02-11T06:30:30.369Z,32
2017-02-11T06:31:10.837Z,36
2017-02-11T06:31:51.863Z,36
2017-02-11T06:32:33.203Z,40
2017-02-11T06:33:13.647Z,48
2017-02-11T06:33:55.132Z,52
2017-02-11T06:34:35.524Z,56
2017-02-11T06:35:15.923Z,60
2017-02-11T06:35:56.273Z,64
2017-02-11T06:36:36.813Z,68
2017-02-11T06:37:17.879Z,68
2017-02-11T06:37:58.308Z,72
2017-02-11T06:38:38.749Z,76
2017-02-11T06:39:19.115Z,80
2017-02-11T06:39:59.528Z,84
2017-02-11T06:40:42.891Z,92
2017-02-11T06:41:24.208Z,96
2017-02-11T06:42:04.653Z,96
2017-02-11T06:42:45.209Z,100
2017-02-11T06:43:25.620Z,104
2017-02-11T06:44:05.989Z,112
2017-02-11T06:44:46.681Z,116
2017-02-11T06:45:27.473Z,124
2017-02-11T06:46:08.043Z,132
2017-02-11T06:46:48.466Z,140
2017-02-11T06:47:28.964Z,148
2017-02-11T06:48:09.498Z,160
2017-02-11T06:48:49.954Z,172
2017-02-11T06:49:30.368Z,180
2017-02-11T06:50:10.762Z,192
2017-02-11T06:50:51.306Z,200
2017-02-11T06:51:35.022Z,216
2017-02-11T06:52:15.256Z,224
2017-02-11T06:52:55.665Z,240
2017-02-11T06:53:36.728Z,256
2017-02-11T06:54:17.100Z,268
2017-02-11T06:54:57.558Z,280
2017-02-11T06:55:37.965Z,292
2017-02-11T06:56:18.364Z,292
2017-02-11T06:56:59.262Z,296
2017-02-11T06:57:39.425Z,296
2017-02-11T06:58:19.856Z,296
2017-02-11T06:59:00.248Z,292
2017-02-11T06:59:40.861Z,292
2017-02-11T07:00:21.223Z,288
2017-02-11T07:01:01.655Z,292
2017-02-11T07:01:42.640Z,288
2017-02-11T07:02:23.048Z,288
2017-02-11T07:03:06.097Z,292
2017-02-11T07:03:56.855Z,296
2017-02-11T07:04:40.187Z,296
2017-02-11T07:05:22.206Z,300
2017-02-11T07:06:03.768Z,312
2017-02-11T07:06:44.731Z,328
2017-02-11T07:07:25.096Z,348
2017-02-11T07:08:05.424Z,380
2017-02-11T07:08:45.851Z,416
2017-02-11T07:09:26.291Z,448
2017-02-11T07:10:06.731Z,484
2017-02-11T07:10:47.141Z,520
2017-02-11T07:11:28.297Z,552
2017-02-11T07:12:08.699Z,592
2017-02-11T07:12:49.114Z,636
2017-02-11T07:13:30.310Z,692
2017-02-11T07:14:10.679Z,732
2017-02-11T07:14:51.087Z,768
2017-02-11T07:15:32.506Z,808
2017-02-11T07:16:12.911Z,848
2017-02-11T07:16:53.311Z,884
2017-02-11T07:17:33.705Z,920
2017-02-11T07:18:14.172Z,944
2017-02-11T07:18:56.499Z,976
2017-02-11T07:19:36.922Z,1004
2017-02-11T07:20:17.345Z,1048
2017-02-11T07:20:57.786Z,1104
2017-02-11T07:21:38.163Z,1160
2017-02-11T07:22:18.637Z,1228
2017-02-11T07:22:59.068Z,1288
2017-02-11T07:23:40.133Z,1328
2017-02-11T07:24:20.548Z,1360
2017-02-11T07:25:00.967Z,1376
2017-02-11T07:25:41.357Z,1380
2017-02-11T07:26:21.766Z,1380
2017-02-11T07:27:02.137Z,1388
2017-02-11T07:27:42.605Z,1404
2017-02-11T07:28:23.111Z,1412
2017-02-11T07:29:05.225Z,1416
2017-02-11T07:29:45.705Z,1424
2017-02-11T07:30:27.075Z,1440
2017-02-11T07:31:06.913Z,1456
2017-02-11T07:31:47.335Z,1476
2017-02-11T07:32:27.753Z,1488
2017-02-11T07:33:08.156Z,1504
2017-02-11T07:33:48.697Z,1532
2017-02-11T07:34:29.198Z,1544
2017-02-11T07:35:09.660Z,1564
2017-02-11T07:35:50.152Z,1572
2017-02-11T07:36:30.465Z,1608
2017-02-11T07:37:10.885Z,1632
2017-02-11T07:37:51.288Z,1632
2017-02-11T07:38:31.703Z,1640
2017-02-11T07:39:12.096Z,1652
2017-02-11T07:39:52.508Z,1680
2017-02-11T07:40:35.468Z,1700
2017-02-11T07:41:15.866Z,1720
2017-02-11T07:41:56.836Z,1744
2017-02-11T07:42:37.236Z,1776
2017-02-11T07:43:17.629Z,1804
2017-02-11T07:43:58.029Z,1840
2017-02-11T07:44:38.466Z,1884
2017-02-11T07:45:18.878Z,1936
2017-02-11T07:45:59.267Z,1968
2017-02-11T07:46:39.710Z,2000
2017-02-11T07:47:20.111Z,2040
2017-02-11T07:48:00.566Z,2084
2017-02-11T07:48:41.014Z,2132
2017-02-11T07:49:21.405Z,2184
2017-02-11T07:50:01.808Z,2216
2017-02-11T07:50:42.246Z,2252
2017-02-11T07:51:22.590Z,2288
2017-02-11T07:52:03.207Z,2328
2017-02-11T07:52:43.844Z,2356
2017-02-11T07:53:24.213Z,2396
2017-02-11T07:54:04.460Z,2440
2017-02-11T07:54:44.917Z,2484
2017-02-11T07:55:25.328Z,2528
2017-02-11T07:56:06.747Z,2596
2017-02-11T07:56:47.126Z,2680
2017-02-11T07:57:27.602Z,2788
2017-02-11T07:58:07.990Z,2896
2017-02-11T07:58:48.401Z,2984
2017-02-11T07:59:28.914Z,3076
2017-02-11T08:00:09.151Z,3144
2017-02-11T08:00:50.585Z,3192
2017-02-11T08:01:31.014Z,3232
2017-02-11T08:02:11.447Z,3260
2017-02-11T08:02:53.568Z,3304
2017-02-11T08:03:34.747Z,3380
2017-02-11T08:04:15.690Z,3468
2017-02-11T08:04:56.026Z,3596
2017-02-11T08:05:36.735Z,3712
2017-02-11T08:06:17.934Z,3868
2017-02-11T08:06:58.918Z,3996
2017-02-11T08:07:40.204Z,4092
2017-02-11T08:08:20.654Z,4152
2017-02-11T08:09:01.103Z,4212
2017-02-11T08:09:41.510Z,4288
2017-02-11T08:10:21.917Z,4368
2017-02-11T08:11:02.994Z,4428
2017-02-11T08:11:44.150Z,4516
2017-02-11T08:12:24.982Z,4644
2017-02-11T08:13:05.434Z,4748
2017-02-11T08:13:45.972Z,4832
2017-02-11T08:14:26.588Z,4832
2017-02-11T08:15:07.367Z,4792
2017-02-11T08:15:47.732Z,4772
2017-02-11T08:16:28.298Z,4768
2017-02-11T08:17:08.675Z,4796
2017-02-11T08:17:49.097Z,4892
2017-02-11T08:18:29.547Z,5008
2017-02-11T08:19:10.229Z,5112
2017-02-11T08:19:51.729Z,5208
2017-02-11T08:20:31.916Z,5300
2017-02-11T08:21:13.102Z,5396
2017-02-11T08:21:54.154Z,5504
2017-02-11T08:22:34.540Z,5588
2017-02-11T08:23:15.342Z,5664
2017-02-11T08:23:57.074Z,5716
2017-02-11T08:24:37.552Z,5820
2017-02-11T08:25:18.320Z,5892
2017-02-11T08:25:58.779Z,5960
2017-02-11T08:26:39.261Z,6060
2017-02-11T08:27:19.675Z,6220
2017-02-11T08:28:00.901Z,6468
2017-02-11T08:28:41.650Z,6740
2017-02-11T08:29:22.432Z,7020
2017-02-11T08:30:03.287Z,7308
2017-02-11T08:30:44.037Z,7752
2017-02-11T08:31:25.087Z,8256
2017-02-11T08:32:05.831Z,8804
2017-02-11T08:32:46.828Z,8752
2017-02-11T08:35:04.663Z,8852
2017-02-11T08:35:52.597Z,8640
2017-02-11T08:36:41.110Z,8236
2017-02-11T08:37:23.897Z,8016
2017-02-11T08:38:04.277Z,7980
2017-02-11T08:38:44.758Z,8096
2017-02-11T08:39:25.076Z,8608
2017-02-11T08:40:05.498Z,7848
2017-02-11T08:40:45.944Z,7136
2017-02-11T08:41:26.955Z,8360
2017-02-11T08:42:07.331Z,9004
2017-02-11T08:42:47.738Z,8892
2017-02-11T08:43:28.203Z,8940
2017-02-11T08:44:08.571Z,9196
2017-02-11T08:44:49.017Z,9356
2017-02-11T08:45:29.394Z,9456
2017-02-11T08:46:09.807Z,9532
2017-02-11T08:46:50.212Z,9596
2017-02-11T08:47:30.643Z,9796
2017-02-11T08:48:11.704Z,9972
2017-02-11T08:48:54.361Z,10172
2017-02-11T08:49:36.077Z,10252
2017-02-11T08:50:17.745Z,10448
2017-02-11T08:50:59.121Z,10784
2017-02-11T08:51:41.270Z,11256
2017-02-11T08:52:24.239Z,11812
2017-02-11T08:53:06.772Z,12372
2017-02-11T08:55:27.107Z,13136
2017-02-11T08:56:15.647Z,13224
2017-02-11T08:57:03.855Z,13376
2017-02-11T08:57:52.483Z,13448
2017-02-11T08:58:41.265Z,13612
2017-02-11T08:59:30.048Z,13796
2017-02-11T09:00:18.344Z,13940
2017-02-11T09:01:06.805Z,14068
2017-02-11T09:01:55.820Z,14252
2017-02-11T09:02:45.224Z,14480
2017-02-11T09:03:33.569Z,15064
2017-02-11T09:04:22.388Z,15504
2017-02-11T09:05:10.843Z,15936
2017-02-11T09:05:59.148Z,16160
2017-02-11T09:06:47.741Z,16544
2017-02-11T09:07:36.462Z,16768
2017-02-11T09:08:25.265Z,17120
2017-02-11T09:09:13.870Z,17056
2017-02-11T09:10:02.268Z,16896
2017-02-11T09:10:51.053Z,16768
2017-02-11T09:11:39.597Z,16832
2017-02-11T09:12:28.065Z,16992
2017-02-11T09:13:17.116Z,16960
2017-02-11T09:14:06.249Z,17248
2017-02-11T09:14:55.526Z,17312
2017-02-11T09:15:44.162Z,16832
2017-02-11T09:16:29.082Z,16352
2017-02-11T09:17:16.590Z,16256
2017-02-11T09:17:57.293Z,15704
2017-02-11T09:18:38.713Z,14956
2017-02-11T09:19:19.230Z,14252
2017-02-11T09:20:03.664Z,13908
2017-02-11T09:20:48.669Z,13620
2017-02-11T09:21:30.773Z,13084
2017-02-11T09:22:12.575Z,12356
2017-02-11T09:22:56.626Z,13448
2017-02-11T09:23:39.121Z,13592
2017-02-11T09:24:23.434Z,13560
2017-02-11T09:25:09.222Z,13616
2017-02-11T09:25:49.308Z,13700
2017-02-11T09:26:30.850Z,13652
2017-02-11T09:27:16.137Z,13492
2017-02-11T09:27:59.773Z,13528
2017-02-11T09:30:39.423Z,14396
2017-02-11T09:31:27.937Z,14448
2017-02-11T09:32:16.691Z,14692
2017-02-11T09:33:03.594Z,14656
2017-02-11T09:33:52.206Z,14444
2017-02-11T09:34:41.872Z,14400
2017-02-11T09:36:58.373Z,14308
2017-02-11T09:37:39.510Z,14568
2017-02-11T09:38:23.991Z,14616
2017-02-11T09:39:03.805Z,14748
2017-02-11T09:39:45.972Z,14560
2017-02-11T09:40:27.982Z,13656
2017-02-11T09:41:11.541Z,14628
2017-02-11T09:41:54.984Z,14820
2017-02-11T09:42:37.007Z,14584
2017-02-11T09:44:47.393Z,14888
2017-02-11T09:45:34.097Z,15156
2017-02-11T09:46:20.193Z,14988
2017-02-11T09:47:03.788Z,13892
2017-02-11T09:47:46.069Z,14248
2017-02-11T09:50:01.962Z,15116
2017-02-11T09:50:43.441Z,15952
2017-02-11T09:51:24.356Z,15592
2017-02-11T09:52:05.340Z,15624
2017-02-11T09:52:46.345Z,15712
2017-02-11T09:53:26.773Z,15580
2017-02-11T09:54:11.931Z,15532
2017-02-11T09:54:54.126Z,15536
2017-02-11T09:55:34.396Z,15724
2017-02-11T09:56:15.808Z,16448
2017-02-11T09:56:56.631Z,17088
2017-02-11T09:57:38.766Z,18272
2017-02-11T09:58:21.123Z,19616
2017-02-11T09:59:01.815Z,20736
2017-02-11T09:59:44.756Z,22144
2017-02-11T10:00:25.227Z,22592
2017-02-11T10:01:06.279Z,23072
2017-02-11T10:01:47.589Z,23488
2017-02-11T10:02:28.030Z,23680
2017-02-11T10:03:11.306Z,23616
2017-02-11T10:03:52.058Z,23392
2017-02-11T10:04:32.427Z,22848
2017-02-11T10:05:13.977Z,22016
2017-02-11T10:05:54.400Z,21536
2017-02-11T10:06:35.427Z,20960
2017-02-11T10:09:00.229Z,19200
2017-02-11T10:09:41.520Z,18720
2017-02-11T10:10:24.359Z,18272
2017-02-11T10:11:04.746Z,17568
2017-02-11T10:11:47.892Z,17312
2017-02-11T10:12:28.278Z,16928
2017-02-11T10:13:08.648Z,16832
2017-02-11T10:13:49.295Z,16928
2017-02-11T10:14:29.715Z,17088
2017-02-11T10:17:00.817Z,17088
2017-02-11T10:17:42.680Z,17600
2017-02-11T10:18:23.697Z,17472
2017-02-11T10:19:07.568Z,17504
2017-02-11T11:56:53.555Z,18496
2017-02-11T11:57:34.232Z,17088
2017-02-11T11:58:14.672Z,17248
2017-02-11T11:58:55.784Z,17056
2017-02-11T11:59:36.179Z,16768
2017-02-11T12:00:16.591Z,16704
2017-02-11T12:00:56.996Z,16336
2017-02-11T12:01:39.369Z,16324
2017-02-11T12:02:19.859Z,16136
2017-02-11T12:03:00.972Z,16196
2017-02-11T12:03:41.258Z,16308
2017-02-11T12:04:21.682Z,16388
2017-02-11T12:05:02.143Z,16292
2017-02-11T12:05:42.572Z,16436
2017-02-11T12:06:24.645Z,16132
2017-02-11T12:07:05.013Z,16096
2017-02-11T12:07:45.492Z,16096
2017-02-11T12:08:25.927Z,15956
2017-02-11T12:09:06.410Z,15996
2017-02-11T12:09:46.863Z,15948
2017-02-11T12:10:28.105Z,16096
2017-02-11T12:11:08.578Z,16052
2017-02-11T12:11:49.198Z,15988
2017-02-11T12:12:30.455Z,15704
2017-02-11T12:13:10.903Z,15928
2017-02-11T12:13:51.373Z,15936
2017-02-11T12:14:31.813Z,16148
2017-02-11T12:15:12.227Z,15968
2017-02-11T12:15:53.170Z,15968
2017-02-11T12:16:33.569Z,15996
2017-02-11T12:17:14.851Z,16032
2017-02-11T12:17:55.310Z,16032
2017-02-11T12:18:35.744Z,16108
2017-02-11T12:19:17.013Z,15980
2017-02-11T12:19:57.393Z,16028
2017-02-11T12:20:37.834Z,15836
2017-02-11T12:21:18.240Z,15728
2017-02-11T12:21:58.650Z,15860
2017-02-11T12:22:39.058Z,15896
2017-02-11T12:23:19.437Z,15864
2017-02-11T12:23:59.881Z,15768
2017-02-11T12:24:40.283Z,15696
2017-02-11T12:25:20.663Z,15816
2017-02-11T12:26:01.411Z,15592
2017-02-11T12:26:41.812Z,15584
2017-02-11T12:27:22.210Z,15444
2017-02-11T12:28:02.713Z,15516
2017-02-11T12:28:43.097Z,13724
2017-02-11T12:29:23.535Z,13728
2017-02-11T12:30:03.982Z,10464
2017-02-11T12:30:45.248Z,9028
2017-02-11T12:31:25.697Z,9152
2017-02-11T12:32:06.138Z,9888
2017-02-11T12:32:46.563Z,10660
2017-02-11T12:33:28.068Z,10492
2017-02-11T12:34:08.429Z,10576
2017-02-11T12:34:48.878Z,11036
2017-02-11T12:35:29.962Z,12000
2017-02-11T12:36:14.688Z,9988
2017-02-11T12:36:55.199Z,12264
2017-02-11T12:37:35.582Z,17600
2017-02-11T12:38:16.010Z,17184
2017-02-11T12:38:56.402Z,15576
2017-02-11T12:39:37.496Z,16480
2017-02-11T12:40:17.922Z,16024
2017-02-11T12:40:58.333Z,15732
2017-02-11T12:41:39.493Z,14208
2017-02-11T12:42:20.792Z,15200
2017-02-11T12:43:02.019Z,15076
2017-02-11T12:43:42.395Z,14672
2017-02-11T12:44:22.818Z,14348
2017-02-11T12:45:03.949Z,14264
2017-02-11T12:45:44.340Z,14576
2017-02-11T12:46:25.645Z,14688
2017-02-11T12:47:06.798Z,14696
2017-02-11T12:47:47.215Z,14652
2017-02-11T12:48:29.130Z,14408
2017-02-11T12:49:10.630Z,14784
2017-02-11T12:49:51.172Z,15056
2017-02-11T12:50:32.433Z,14788
2017-02-11T12:51:13.119Z,14568
2017-02-11T12:51:53.702Z,14684
2017-02-11T12:52:34.776Z,14912
2017-02-11T12:53:15.073Z,14816
2017-02-11T12:53:58.117Z,14632
2017-02-11T12:54:41.561Z,14304
2017-02-11T12:55:21.871Z,15460
2017-02-11T12:56:02.972Z,16448
2017-02-11T12:56:43.380Z,16544
2017-02-11T12:57:23.818Z,16068
2017-02-11T12:58:04.788Z,15772
2017-02-11T12:58:45.931Z,14832
2017-02-11T12:59:26.420Z,14424
2017-02-11T13:00:08.391Z,14056
2017-02-11T13:00:49.510Z,13612
2017-02-11T13:01:32.123Z,13140
2017-02-11T13:02:13.282Z,12368
2017-02-11T13:02:55.635Z,12712
2017-02-11T13:03:36.429Z,12772
2017-02-11T13:04:19.685Z,12704
2017-02-11T13:05:01.209Z,11528
2017-02-11T13:05:43.119Z,11040
2017-02-11T13:06:23.880Z,10912
2017-02-11T13:07:04.430Z,11704
2017-02-11T13:07:44.886Z,10932
2017-02-11T13:08:26.439Z,10412
2017-02-11T13:09:10.335Z,9748
2017-02-11T13:09:51.512Z,10080
2017-02-11T13:10:36.213Z,10516
2017-02-11T13:11:17.102Z,10360
2017-02-11T13:11:58.475Z,9456
2017-02-11T13:12:39.202Z,9188
2017-02-11T13:13:23.955Z,11708
2017-02-11T13:14:01.920Z,12280
2017-02-11T13:14:43.668Z,11868
2017-02-11T13:15:24.579Z,11980
2017-02-11T13:16:07.596Z,9532
2017-02-11T13:16:48.928Z,6740
2017-02-11T13:17:30.726Z,5928
2017-02-11T13:18:12.224Z,5872
2017-02-11T13:18:52.757Z,6856
2017-02-11T13:19:38.096Z,8008
2017-02-11T13:20:21.426Z,7896
2017-02-11T13:21:03.881Z,8360
2017-02-11T13:21:47.462Z,8688
2017-02-11T13:22:28.514Z,10748
2017-02-11T13:23:09.345Z,11672
2017-02-11T13:23:50.680Z,12196
2017-02-11T13:24:33.191Z,11984
2017-02-11T13:25:13.872Z,10840
2017-02-11T13:25:55.980Z,10648
2017-02-11T13:26:36.589Z,10016
2017-02-11T13:27:17.453Z,12484
2017-02-11T13:27:58.020Z,12528
2017-02-11T13:28:38.550Z,10816
2017-02-11T13:29:19.023Z,8852
2017-02-11T13:29:59.725Z,8876
2017-02-11T13:30:40.822Z,8764
2017-02-11T13:31:22.043Z,8544
2017-02-11T13:32:02.427Z,8328
2017-02-11T13:32:42.890Z,8264
2017-02-11T13:33:23.330Z,8340
2017-02-11T13:34:04.564Z,8576
2017-02-11T13:34:45.021Z,8820
2017-02-11T13:35:25.415Z,8952
2017-02-11T13:36:05.846Z,8932
2017-02-11T13:36:46.223Z,8848
2017-02-11T13:37:26.640Z,8744
2017-02-11T13:38:07.139Z,8632
2017-02-11T13:38:48.271Z,8440
2017-02-11T13:39:29.525Z,8316
2017-02-11T13:40:13.785Z,8240
2017-02-11T13:40:54.350Z,8244
2017-02-11T13:41:37.714Z,8228
2017-02-11T13:42:19.297Z,8004
2017-02-11T13:43:00.306Z,7548
2017-02-11T13:43:40.669Z,6992
2017-02-11T13:44:21.300Z,6452
2017-02-11T13:45:04.660Z,6060
2017-02-11T13:45:44.972Z,5872
2017-02-11T13:46:25.469Z,5772
2017-02-11T13:47:06.706Z,5656
2017-02-11T13:47:47.148Z,5452
2017-02-11T13:48:27.587Z,5188
2017-02-11T13:49:07.996Z,4924
2017-02-11T13:49:48.494Z,4684
2017-02-11T13:50:28.917Z,4644
2017-02-11T13:51:09.367Z,4752
2017-02-11T13:51:49.773Z,4844
2017-02-11T13:52:30.302Z,5004
2017-02-11T13:53:10.823Z,5152
2017-02-11T13:53:51.187Z,5176
2017-02-11T13:54:31.915Z,5112
2017-02-11T13:55:12.284Z,5040
2017-02-11T13:55:52.845Z,4928
2017-02-11T13:56:33.362Z,4688
2017-02-11T13:57:13.724Z,4328
2017-02-11T13:57:54.210Z,3888
2017-02-11T13:58:34.564Z,3444
2017-02-11T13:59:16.008Z,3064
2017-02-11T13:59:56.520Z,2852
2017-02-11T14:00:38.031Z,2824
2017-02-11T14:01:18.477Z,2840
2017-02-11T14:01:58.896Z,2852
2017-02-11T14:02:40.143Z,2896
2017-02-11T14:03:20.689Z,3000
2017-02-11T14:04:01.190Z,3188
2017-02-11T14:04:41.656Z,3396
2017-02-11T14:05:22.133Z,3624
2017-02-11T14:06:02.563Z,3864
2017-02-11T14:06:43.805Z,4072
2017-02-11T14:07:25.249Z,4264
2017-02-11T14:08:06.746Z,4400
2017-02-11T14:08:47.461Z,4532
2017-02-11T14:09:29.409Z,4708
2017-02-11T14:10:09.918Z,5104
2017-02-11T14:10:50.989Z,5624
2017-02-11T14:11:31.428Z,5696
2017-02-11T14:12:12.502Z,5968
2017-02-11T14:12:53.715Z,6192
2017-02-11T14:13:34.221Z,6704
2017-02-11T14:14:14.832Z,7152
2017-02-11T14:16:44.227Z,8772
2017-02-11T14:17:24.325Z,9256